Hovedside
METAR-TAF:

METAR-TAF

Lufthavner :

Svalbard lufthavn. Longyear

Longyearbyen, Norge

breddegrad: 78-15N, lengdegrad: 015-28E, høyde over havet: 2 m

Gjeldene værobservasjon

Denne rapporten ble laget for 22 minutter siden, klokken 20:20 UTC
Vind 9 kt fra Nord
Temperatur -3°C
Luftfuktighet 50%
Trykk 1017 hPa
Sikt 10 km eller mer
Få skyer i en høyde av 3000 ft
Spredte skyer i en høyde av 4500 ft

METAR: ENSB 202020Z 36009KT 9999 FEW030 SCT045 M03/M12 Q1017 RMK WIND 1400FT 01009KT

Tid: 22:42 (20:42 UTC)

Varsel

Denne rapporten ble laget for 3 timer og 42 minutter siden, klokken 17:00 UTC
Varsel gyldig fra 20. klokken 18 UTC til 21. klokken 18 UTC
Vind 9 kt fra Nord-nordvest
Sikt 10 km eller mer
Få skyer i en høyde av 2500 ft
Spredte skyer i en høyde av 3500 ft

TAF: ENSB 201700Z 2018/2118 34009KT 9999 FEW025 SCT035

Værobservasjoner og værvarsel for over 4000 flyplasser (METAR- og TAF-rapporter).

Tilgjengelige stasjoner er representert av de røde og gule prikkene på kartet.

Hold musepekeren over prikken for å se navnet på stasjonen.

Klikk så for å se værobservasjoner og -varsler.

For å forandre kartet kan du klikke på den grønne knappen med svart kryss for å zoome inn, på den grønne knappen med strek for å zoome ut, eller på de grønne pilene for å se tilstøtende kart.


METAR-TAF: